ADDS METAR Data INFO
IDs: Format: Raw Decoded Include TAF

Data at: 0315 UTC 20 Jul 2018

KEDE 200255Z AUTO 11004KT 10SM CLR 24/21 A3009 RMK AO2 T02420211
KEDE 200235Z AUTO 11006KT 10SM CLR 25/21 A3009 RMK AO2 T02470209
KEDE 200215Z AUTO 11004KT 10SM CLR 24/20 A3009 RMK AO2 T02420204
KEDE 200155Z AUTO 11004KT 10SM CLR 25/20 A3009 RMK AO2 T02450202
KEDE 200135Z AUTO 11004KT 10SM CLR 25/20 A3008 RMK AO2 T02460204
KEDE 200115Z AUTO 10004KT 10SM CLR 25/20 A3007 RMK AO2 T02470203
KEDE 200055Z AUTO 09006KT 10SM CLR 25/20 A3007 RMK AO2 T02530197
KEDE 200035Z AUTO 09006KT 10SM CLR 26/19 A3006 RMK AO2 T02580186
KEDE 192255Z AUTO 09007KT 10SM CLR 28/19 A3005 RMK AO2 T02800193
KEDE 192135Z AUTO 08009KT 10SM CLR 30/17 A3004 RMK AO2 T02980166
KEDE 192115Z AUTO 11010KT 10SM CLR 30/17 A3005 RMK AO2 T03020165
KEDE 192055Z AUTO 08008KT 10SM CLR 30/16 A3005 RMK AO2 T03020161
KEDE 192035Z AUTO 10009KT 060V120 10SM CLR 30/17 A3006 RMK AO2 T03030168
KEDE 192015Z AUTO 10010KT 10SM CLR 30/17 A3006 RMK AO2 T03030166
KEDE 191955Z AUTO 09011KT 10SM CLR 30/18 A3006 RMK AO2 T03040180
KEDE 191935Z AUTO 10010KT 10SM CLR 31/17 A3006 RMK AO2 T03060169
KEDE 191915Z AUTO 11010G14KT 10SM CLR 31/15 A3006 RMK AO2 T03100154
KEDE 191855Z AUTO 08010KT 10SM CLR 31/17 A3007 RMK AO2 T03060167
KEDE 191835Z AUTO 09010KT 10SM SCT080 31/16 A3007 RMK AO2 T03060161
KEDE 191815Z AUTO 09009G15KT 10SM SCT080 30/16 A3007 RMK AO2 T03040157
KEDE 191755Z AUTO 10006KT 10SM BKN080 31/15 A3007 RMK AO2 T03140154 10316 20230
KEDE 191735Z AUTO 12008KT 10SM BKN080 31/14 A3008 RMK AO2 T03060141
KEDE 191715Z AUTO 12010G17KT 10SM SCT070 31/18 A3007 RMK AO2 T03130183
KEDE 191655Z AUTO 13008KT 10SM SCT070 31/17 A3008 RMK AO2 T03110166
KEDE 191635Z AUTO 09010KT 10SM BKN070 31/15 A3008 RMK AO2 T03120147
KEDE 191555Z AUTO 06003KT 10SM SCT060 SCT070 29/16 A3008 RMK AO2 T02920157
KEDE 191535Z AUTO 04007KT 10SM CLR 30/17 A3008 RMK AO2 T03020167
KEDE 191515Z AUTO 07005KT 10SM CLR 30/16 A3008 RMK AO2 T02990162
KEDE 191455Z AUTO 03007KT 10SM CLR 30/16 A3008 RMK AO2 T02950164
KEDE 191435Z AUTO 07004KT 10SM CLR 29/17 A3008 RMK AO2 T02920170
KEDE 191415Z AUTO 06004KT 10SM CLR 29/19 A3008 RMK AO2 T02870185
KEDE 191355Z AUTO 09003KT 10SM CLR 28/19 A3008 RMK AO2 T02830191
KEDE 191335Z AUTO 00000KT 10SM CLR 28/19 A3007 RMK AO2 T02750193
KEDE 191315Z AUTO 04003KT 10SM CLR 27/20 A3006 RMK AO2 T02700197
KEDE 191255Z AUTO 36004KT 10SM CLR 26/20 A3006 RMK AO2 T02610199
KEDE 191235Z AUTO 36005KT 10SM CLR 25/19 A3005 RMK AO2 T02510193
KEDE 191215Z AUTO 35004KT 10SM CLR 24/19 A3004 RMK AO2 T02400194
KEDE 191155Z AUTO 34004KT 10SM CLR 23/20 A3004 RMK AO2 T02300196 10230 20193
KEDE 191135Z AUTO 00000KT 10SM CLR 22/19 A3004 RMK AO2 T02180194
KEDE 191115Z AUTO 35003KT 10SM CLR 21/19 A3003 RMK AO2 T02100190
KEDE 191055Z AUTO 35004KT 10SM CLR 20/19 A3003 RMK AO2 T02030187
KEDE 191035Z AUTO 00000KT 10SM CLR 20/18 A3003 RMK AO2 T01990184
KEDE 191015Z AUTO 00000KT 10SM CLR 20/19 A3002 RMK AO2 T01980186
KEDE 190955Z AUTO 34003KT 10SM CLR 20/19 A3002 RMK AO2 T01980186
KEDE 190935Z AUTO 01004KT 10SM CLR 19/18 A3001 RMK AO2 T01930182
KEDE 190915Z AUTO 00000KT 10SM CLR 20/19 A3001 RMK AO2 T02000187
KEDE 190855Z AUTO 00000KT 10SM SCT065 20/19 A3001 RMK AO2 T02020193
KEDE 190835Z AUTO 00000KT 10SM SCT065 21/20 A3000 RMK AO2 T02050196
KEDE 190815Z AUTO 00000KT 10SM CLR 21/20 A3000 RMK AO2 T02050195
KEDE 190755Z AUTO 00000KT 10SM CLR 21/20 A3000 RMK AO2 T02060196
KEDE 190735Z AUTO 00000KT 10SM SCT065 21/20 A3000 RMK AO2 T02070195
KEDE 190715Z AUTO 00000KT 10SM SCT065 21/19 A3000 RMK AO2 T02060194
KEDE 190655Z AUTO 00000KT 10SM SCT055 21/20 A3000 RMK AO2 T02090197
KEDE 190635Z AUTO 00000KT 10SM CLR 21/20 A3000 RMK AO2 T02100200
KEDE 190615Z AUTO 00000KT 10SM CLR 21/20 A3001 RMK AO2 T02120201
KEDE 190555Z AUTO 00000KT 10SM CLR 22/20 A3001 RMK AO2 T02160202 10272 20216 403160216
KEDE 190535Z AUTO 00000KT 10SM CLR 22/20 A3001 RMK AO2 T02160204
KEDE 190515Z AUTO 00000KT 10SM CLR 22/20 A3000 RMK AO2 T02170202
KEDE 190455Z AUTO 00000KT 10SM SCT060 22/20 A3000 RMK AO2 T02170201
KEDE 190435Z AUTO 00000KT 10SM BKN060 22/21 A3000 RMK AO2 T02230205
KEDE 190355Z AUTO 00000KT 10SM SCT060 23/21 A2999 RMK AO2 T02270206
KEDE 190335Z AUTO 00000KT 10SM SCT048 SCT060 24/21 A2999 RMK AO2 T02350209
KEDE 190315Z AUTO 00000KT 10SM SCT050 24/21 A2999 RMK AO2 T02350210
KEDE 190255Z AUTO 00000KT 10SM SCT050 24/21 A2999 RMK AO2 T02380209
KEDE 190235Z AUTO 00000KT 10SM SCT050 24/21 A2999 RMK AO2 T02420209
KEDE 190215Z AUTO 07003KT 10SM SCT050 24/21 A2998 RMK AO2 T02420214
KEDE 190155Z AUTO 00000KT 10SM SCT050 25/22 A2997 RMK AO2 T02470216
KEDE 190135Z AUTO 00000KT 10SM OVC050 25/22 A2996 RMK AO2 T02500215
KEDE 190115Z AUTO 07004KT 10SM BKN050 25/22 A2996 RMK AO2 T02490217
KEDE 190055Z AUTO 08004KT 10SM CLR 26/22 A2995 RMK AO2 T02570220
KEDE 190035Z AUTO 09004KT 10SM SCT049 26/22 A2995 RMK AO2 T02600220
KEDE 190015Z AUTO 09003KT 10SM SCT049 27/23 A2995 RMK AO2 T02660227
KEDE 182355Z AUTO 00000KT 10SM SCT075 27/23 A2994 RMK AO2 T02730231 10316 20273
KEDE 182335Z AUTO 09004KT 10SM SCT065 28/23 A2994 RMK AO2 T02770231
KEDE 182315Z AUTO 08003KT 10SM BKN065 BKN085 28/23 A2994 RMK AO2 T02800232
KEDE 182255Z AUTO 10004KT 10SM SCT047 BKN055 OVC065 29/24 A2994 RMK AO2 T02850235
KEDE 182235Z AUTO 00000KT 10SM SCT045 OVC055 29/21 A2993 RMK AO2 T02900210
KEDE 182135Z AUTO 02006KT 10SM BKN060 30/20 A2992 RMK AO2 T03040201
KEDE 182115Z AUTO 01008KT 10SM BKN060 31/21 A2991 RMK AO2 T03070205
KEDE 182035Z AUTO 35009KT 10SM OVC060 31/21 A2992 RMK AO2 T03070205
KEDE 182015Z AUTO 02007KT 10SM SCT042 BKN060 30/21 A2992 RMK AO2 T03040205
KEDE 181955Z AUTO 36006KT 10SM CLR 32/21 A2993 RMK AO2 T03150207
KEDE 181935Z AUTO 02006KT 10SM SCT060 31/22 A2993 RMK AO2 T03130215
KEDE 181915Z AUTO 36005KT 340V040 10SM SCT060 SCT070 31/21 A2993 RMK AO2 T03140214
KEDE 181855Z AUTO 35005KT 10SM SCT065 31/21 A2993 RMK AO2 T03120213
KEDE 181835Z AUTO 36007KT 10SM SCT055 BKN065 31/22 A2993 RMK AO2 T03080223
KEDE 181815Z AUTO 03005KT 10SM SCT037 OVC060 30/22 A2993 RMK AO2 T03020218
KEDE 181755Z AUTO 01004KT 10SM SCT039 BKN060 31/22 A2993 RMK AO2 T03080216 10310 20251
KEDE 181715Z AUTO 32005KT 10SM SCT033 SCT060 SCT095 30/23 A2993 RMK AO2 T03030229
KEDE 181655Z AUTO 08004KT 10SM SCT031 BKN060 BKN095 30/22 A2993 RMK AO2 T02980221
KEDE 181635Z AUTO 01005KT 10SM OVC060 30/23 A2994 RMK AO2 T02950226
KEDE 181615Z AUTO 01007KT 10SM SCT060 30/23 A2994 RMK AO2 T02950232
KEDE 181555Z AUTO 36007KT 10SM SCT018 SCT070 29/24 A2994 RMK AO2 T02870236
KEDE 181535Z AUTO 01008KT 10SM SCT018 SCT070 28/24 A2994 RMK AO2 T02830237